Time;durP1;ratioP1;P1;durP2;ratioP2;P2;SDS_P1;SDS_P2;PMS_P1;PMS_P2;Temp;Humidity;BMP_temperature;BMP_pressure;BME280_temperature;BME280_humidity;BME280_pressure;Samples;Min_cycle;Max_cycle;Signal;HPM_P1;HPM_P2
2021/06/11 00:01:02;;;;;;;555.20;70.18;;;;;13.70;100884.00;;;;5028512;28;20481;-71
2021/06/11 00:03:29;;;;;;;240.20;53.22;;;;;13.70;100889.00;;;;5029468;28;20141;-71
2021/06/11 00:05:55;;;;;;;741.35;66.00;;;;;13.50;100882.00;;;;5029713;28;20029;-69
2021/06/11 00:08:22;;;;;;;314.00;48.28;;;;;13.50;100889.00;;;;5029162;28;20120;-70
2021/06/11 00:10:48;;;;;;;132.35;42.75;;;;;13.50;100890.00;;;;5029305;28;20123;-69
2021/06/11 00:13:15;;;;;;;198.68;55.47;;;;;13.60;100893.00;;;;5029329;28;20408;-69
2021/06/11 00:15:42;;;;;;;146.45;48.08;;;;;13.50;100881.00;;;;5029493;28;20492;-71
2021/06/11 00:18:09;;;;;;;187.13;52.38;;;;;13.50;100877.00;;;;5029054;28;20026;-71
2021/06/11 00:20:35;;;;;;;176.90;49.95;;;;;13.50;100889.00;;;;5028671;28;20029;-73
2021/06/11 00:23:02;;;;;;;184.07;39.20;;;;;13.40;100880.00;;;;5029175;28;20509;-72
2021/06/11 00:25:28;;;;;;;694.88;37.45;;;;;13.30;100893.00;;;;5029089;28;20103;-71
2021/06/11 00:27:59;;;;;;;224.25;30.40;;;;;13.30;100887.00;;;;5029705;28;20037;-71
2021/06/11 00:30:28;;;;;;;127.60;26.92;;;;;13.30;100913.00;;;;5028939;28;20029;-71
2021/06/11 00:32:56;;;;;;;101.70;22.73;;;;;13.30;100909.00;;;;5028711;28;20171;-73
2021/06/11 00:35:22;;;;;;;129.68;30.80;;;;;13.30;100903.00;;;;5028458;28;20029;-72
2021/06/11 00:37:49;;;;;;;202.32;59.13;;;;;13.30;100895.00;;;;5028711;28;20622;-72
2021/06/11 00:40:16;;;;;;;219.73;64.47;;;;;13.20;100893.00;;;;5028645;28;20033;-74
2021/06/11 00:42:43;;;;;;;524.90;60.20;;;;;13.20;100912.00;;;;5028715;28;20029;-69
2021/06/11 00:45:11;;;;;;;160.82;49.42;;;;;13.10;100895.00;;;;5028793;28;20032;-72
2021/06/11 00:47:38;;;;;;;495.15;60.67;;;;;13.20;100905.00;;;;5028422;28;20040;-71
2021/06/11 00:50:06;;;;;;;370.20;54.83;;;;;13.20;100892.00;;;;5028649;28;20036;-70
2021/06/11 00:52:33;;;;;;;320.08;45.00;;;;;13.30;100911.00;;;;5028727;28;20090;-71
2021/06/11 00:55:00;;;;;;;296.42;49.20;;;;;13.40;100911.00;;;;5028241;28;20119;-70
2021/06/11 00:57:27;;;;;;;181.60;43.05;;;;;13.50;100915.00;;;;5028782;28;20052;-71
2021/06/11 00:59:57;;;;;;;120.50;37.08;;;;;13.50;100912.00;;;;5027972;28;20037;-73
2021/06/11 01:02:23;;;;;;;120.15;33.67;;;;;13.60;100901.00;;;;5026972;28;20108;-72
2021/06/11 01:04:51;;;;;;;103.63;29.75;;;;;13.60;100893.00;;;;5028450;28;20033;-72
2021/06/11 01:07:22;;;;;;;88.57;25.67;;;;;13.70;100903.00;;;;5028293;28;20064;-72
2021/06/11 01:09:49;;;;;;;111.10;24.95;;;;;13.70;100900.00;;;;5027724;28;20053;-73
2021/06/11 01:12:17;;;;;;;95.30;22.70;;;;;13.70;100893.00;;;;5028103;28;20025;-71
2021/06/11 01:14:44;;;;;;;113.50;22.75;;;;;13.70;100887.00;;;;5027976;28;20100;-71
2021/06/11 01:17:11;;;;;;;111.00;23.02;;;;;13.70;100894.00;;;;5028224;28;20029;-73
2021/06/11 01:19:43;;;;;;;113.82;22.45;;;;;13.70;100886.00;;;;5038199;28;20029;-71
2021/06/11 01:23:02;;;;;;;69.72;18.95;;;;;13.80;100898.00;;;;5032788;28;20026;-70
2021/06/11 01:25:45;;;;;;;70.85;20.00;;;;;13.90;100895.00;;;;5004557;28;20104;-74
2021/06/11 01:28:13;;;;;;;90.32;22.42;;;;;13.90;100904.00;;;;5028663;28;20370;-71
2021/06/11 01:30:41;;;;;;;83.68;22.27;;;;;13.90;100906.00;;;;5027930;28;20029;-74
2021/06/11 01:33:08;;;;;;;102.93;24.23;;;;;14.00;100909.00;;;;5026052;28;20038;-73
2021/06/11 01:35:49;;;;;;;102.75;26.95;;;;;14.00;100899.00;;;;5027713;28;20504;-71
2021/06/11 01:38:21;;;;;;;125.10;39.72;;;;;14.00;100905.00;;;;5027580;28;20033;-73
2021/06/11 01:40:50;;;;;;;103.10;36.25;;;;;13.90;100905.00;;;;5027968;28;20547;-73
2021/06/11 01:43:19;;;;;;;125.50;39.15;;;;;13.90;100899.00;;;;5027153;28;20557;-73
2021/06/11 01:45:46;;;;;;;93.47;31.13;;;;;14.00;100893.00;;;;5027382;28;20047;-72
2021/06/11 01:48:17;;;;;;;99.97;29.90;;;;;14.00;100906.00;;;;5027798;28;20029;-74
2021/06/11 01:50:44;;;;;;;118.30;30.63;;;;;14.10;100892.00;;;;5028225;28;20417;-74
2021/06/11 01:53:14;;;;;;;104.15;29.13;;;;;14.10;100902.00;;;;5027480;28;20037;-70
2021/06/11 01:55:42;;;;;;;96.68;27.88;;;;;14.10;100896.00;;;;5027210;28;20108;-73
2021/06/11 01:58:11;;;;;;;102.70;28.48;;;;;14.20;100899.00;;;;5027720;28;20025;-73
2021/06/11 02:00:39;;;;;;;106.22;29.40;;;;;14.20;100894.00;;;;5027332;28;20042;-75
2021/06/11 02:03:06;;;;;;;100.53;28.95;;;;;14.20;100894.00;;;;5027758;28;20493;-74
2021/06/11 02:05:34;;;;;;;87.80;26.73;;;;;14.30;100894.00;;;;5027466;28;20021;-72
2021/06/11 02:08:01;;;;;;;86.28;27.08;;;;;14.30;100901.00;;;;5026800;28;20115;-72
2021/06/11 02:10:28;;;;;;;96.60;26.40;;;;;14.30;100903.00;;;;5027044;28;20716;-69
2021/06/11 02:12:55;;;;;;;79.60;24.67;;;;;14.30;100884.00;;;;5026959;28;20467;-73
2021/06/11 02:15:22;;;;;;;80.05;24.40;;;;;14.30;100883.00;;;;5027236;28;20025;-74
2021/06/11 02:17:54;;;;;;;63.55;21.90;;;;;14.30;100888.00;;;;5028055;28;20036;-73
2021/06/11 02:20:24;;;;;;;98.32;23.02;;;;;14.30;100886.00;;;;5027455;28;20057;-70
2021/06/11 02:22:51;;;;;;;73.20;22.33;;;;;14.30;100873.00;;;;5026497;28;20497;-69
2021/06/11 02:25:19;;;;;;;88.22;25.42;;;;;14.30;100897.00;;;;5027234;28;20449;-72
2021/06/11 02:27:47;;;;;;;68.55;24.33;;;;;14.30;100899.00;;;;5026590;28;20031;-69
2021/06/11 02:30:17;;;;;;;71.78;23.55;;;;;14.30;100892.00;;;;5025720;28;20037;-73
2021/06/11 02:32:45;;;;;;;72.40;23.00;;;;;14.30;100897.00;;;;5027194;28;20123;-72
2021/06/11 02:35:21;;;;;;;73.65;22.40;;;;;14.30;100889.00;;;;5026801;28;20040;-73
2021/06/11 02:37:48;;;;;;;74.97;25.05;;;;;14.40;100882.00;;;;5026876;28;20025;-72
2021/06/11 02:40:16;;;;;;;71.47;27.95;;;;;14.40;100883.00;;;;5027058;28;20037;-71
2021/06/11 02:42:47;;;;;;;86.40;26.70;;;;;14.50;100893.00;;;;5027172;28;20030;-71
2021/06/11 02:45:21;;;;;;;69.38;29.45;;;;;14.50;100886.00;;;;5026612;28;20523;-71
2021/06/11 02:48:22;;;;;;;83.18;35.72;;;;;14.60;100884.00;;;;5026791;28;20036;-72
2021/06/11 02:50:57;;;;;;;63.33;34.03;;;;;14.70;100888.00;;;;5021205;28;20531;-69
2021/06/11 02:53:28;;;;;;;80.30;34.88;;;;;14.80;100870.00;;;;5026424;28;20030;-74
2021/06/11 02:56:06;;;;;;;83.03;39.55;;;;;14.90;100875.00;;;;5026304;28;20086;-70
2021/06/11 02:59:00;;;;;;;72.25;41.03;;;;;14.90;100882.00;;;;5026789;28;20087;-71
2021/06/11 03:01:29;;;;;;;69.75;40.63;;;;;15.00;100874.00;;;;5023985;28;20053;-71
2021/06/11 03:04:00;;;;;;;76.85;41.10;;;;;15.00;100865.00;;;;5026678;28;20080;-71
2021/06/11 03:06:28;;;;;;;74.78;40.38;;;;;15.00;100877.00;;;;5026530;28;20060;-69
2021/06/11 03:08:56;;;;;;;61.20;34.55;;;;;15.00;100865.00;;;;5026370;28;20049;-71
2021/06/11 03:11:31;;;;;;;63.58;36.22;;;;;15.00;100857.00;;;;5026204;28;20048;-71
2021/06/11 03:13:59;;;;;;;57.13;32.97;;;;;14.90;100871.00;;;;5026513;28;20037;-72
2021/06/11 03:16:28;;;;;;;55.10;31.65;;;;;14.80;100875.00;;;;5026445;28;20030;-69
2021/06/11 03:19:08;;;;;;;54.05;31.50;;;;;14.80;100867.00;;;;5025945;28;20485;-72
2021/06/11 03:21:52;;;;;;;52.22;30.83;;;;;14.80;100864.00;;;;5026166;28;20029;-70
2021/06/11 03:24:29;;;;;;;49.83;31.23;;;;;14.90;100859.00;;;;5026517;28;20656;-69
2021/06/11 03:27:04;;;;;;;53.13;32.15;;;;;14.90;100863.00;;;;5030331;28;20374;-70
2021/06/11 03:29:37;;;;;;;52.00;30.77;;;;;14.90;100862.00;;;;5030136;28;20037;-68
2021/06/11 03:32:12;;;;;;;60.15;33.40;;;;;14.90;100857.00;;;;5030400;28;20030;-68
2021/06/11 03:34:49;;;;;;;52.63;31.15;;;;;14.90;100867.00;;;;5030540;28;20032;-70
2021/06/11 03:37:19;;;;;;;44.58;31.05;;;;;14.80;100879.00;;;;5030054;28;20036;-71
2021/06/11 03:39:57;;;;;;;59.00;33.47;;;;;14.90;100861.00;;;;5030382;28;20108;-70
2021/06/11 03:42:24;;;;;;;52.17;31.95;;;;;14.80;100867.00;;;;5030173;28;20025;-68
2021/06/11 03:44:53;;;;;;;48.88;29.83;;;;;14.80;100874.00;;;;5029786;28;20454;-68
2021/06/11 03:47:23;;;;;;;51.08;30.92;;;;;14.80;100874.00;;;;5029913;28;20075;-69
2021/06/11 03:49:52;;;;;;;52.63;31.80;;;;;14.80;100877.00;;;;5029597;28;20470;-70
2021/06/11 03:52:25;;;;;;;56.05;32.90;;;;;14.80;100882.00;;;;5029957;28;20025;-67
2021/06/11 03:54:55;;;;;;;46.40;31.08;;;;;14.80;100873.00;;;;5029519;28;20025;-70
2021/06/11 03:57:27;;;;;;;54.45;33.15;;;;;14.90;100865.00;;;;5030367;28;20037;-71
2021/06/11 03:59:55;;;;;;;50.58;32.17;;;;;14.90;100878.00;;;;5029838;28;20068;-71
2021/06/11 04:02:22;;;;;;;52.72;32.35;;;;;14.90;100890.00;;;;5029548;28;20030;-71
2021/06/11 04:04:48;;;;;;;52.67;32.72;;;;;14.90;100886.00;;;;5029485;28;20029;-68
2021/06/11 04:07:28;;;;;;;50.83;34.03;;;;;14.90;100883.00;;;;5029298;28;20025;-71
2021/06/11 04:10:06;;;;;;;54.47;32.72;;;;;14.90;100890.00;;;;5029213;28;20057;-72
2021/06/11 04:12:48;;;;;;;50.50;31.65;;;;;14.90;100879.00;;;;5029764;28;20026;-70
2021/06/11 04:15:15;;;;;;;54.67;30.58;;;;;14.90;100888.00;;;;5029280;28;20087;-69
2021/06/11 04:17:47;;;;;;;55.92;31.00;;;;;14.90;100894.00;;;;5029755;28;20100;-69
2021/06/11 04:20:26;;;;;;;46.78;30.50;;;;;14.80;100880.00;;;;5029187;28;20079;-69
2021/06/11 04:22:57;;;;;;;48.15;30.55;;;;;14.80;100891.00;;;;5029709;28;20508;-72
2021/06/11 04:25:29;;;;;;;47.83;30.58;;;;;14.80;100887.00;;;;5030124;28;20606;-69
2021/06/11 04:27:58;;;;;;;55.08;33.88;;;;;14.80;100897.00;;;;5029458;28;20504;-71
2021/06/11 04:30:25;;;;;;;73.05;34.17;;;;;14.80;100897.00;;;;5028777;28;20127;-71
2021/06/11 04:32:53;;;;;;;68.95;35.60;;;;;14.90;100898.00;;;;5028662;28;20511;-68
2021/06/11 04:35:24;;;;;;;57.35;33.83;;;;;14.90;100894.00;;;;5029347;28;20048;-68
2021/06/11 04:37:52;;;;;;;63.08;34.55;;;;;14.90;100900.00;;;;5029030;28;20033;-69
2021/06/11 04:40:19;;;;;;;59.50;33.70;;;;;14.90;100910.00;;;;5029152;28;20037;-69
2021/06/11 04:42:45;;;;;;;53.30;33.22;;;;;14.90;100907.00;;;;5028792;28;20462;-71
2021/06/11 04:45:12;;;;;;;54.63;33.40;;;;;14.90;100915.00;;;;5028780;28;20032;-67
2021/06/11 04:47:40;;;;;;;42.33;26.15;;;;;15.00;100914.00;;;;5029639;28;20033;-71
2021/06/11 04:50:07;;;;;;;53.25;27.60;;;;;15.00;100913.00;;;;5028760;28;20091;-72
2021/06/11 04:52:33;;;;;;;48.60;28.25;;;;;15.00;100919.00;;;;5029011;28;20033;-71
2021/06/11 04:55:00;;;;;;;47.05;28.98;;;;;15.00;100919.00;;;;5028513;28;20405;-68
2021/06/11 04:57:26;;;;;;;44.70;27.73;;;;;15.00;100919.00;;;;5028889;28;20021;-71
2021/06/11 04:59:53;;;;;;;43.30;27.13;;;;;15.00;100921.00;;;;5028671;28;20030;-70
2021/06/11 05:02:19;;;;;;;45.60;28.35;;;;;14.90;100917.00;;;;5028343;28;20049;-69
2021/06/11 05:04:46;;;;;;;37.72;25.40;;;;;14.90;100937.00;;;;5028156;28;20029;-69
2021/06/11 05:07:13;;;;;;;38.63;26.13;;;;;14.90;100931.00;;;;5028222;28;20025;-70
2021/06/11 05:09:39;;;;;;;48.30;25.58;;;;;14.90;100920.00;;;;5027872;28;20171;-69
2021/06/11 05:12:06;;;;;;;36.35;23.10;;;;;14.80;100920.00;;;;5028019;28;20046;-69
2021/06/11 05:14:33;;;;;;;44.03;24.00;;;;;14.80;100916.00;;;;5028389;28;20045;-68
2021/06/11 05:16:59;;;;;;;39.40;22.73;;;;;14.80;100897.00;;;;5026813;28;20068;-72
2021/06/11 05:19:26;;;;;;;38.53;22.95;;;;;14.80;100909.00;;;;5027985;28;20029;-69
2021/06/11 05:21:54;;;;;;;36.47;22.52;;;;;14.80;100905.00;;;;5027861;28;20041;-67
2021/06/11 05:24:20;;;;;;;37.92;22.95;;;;;14.80;100917.00;;;;5028571;28;20036;-69
2021/06/11 05:26:47;;;;;;;34.60;21.42;;;;;14.80;100900.00;;;;5028416;28;20485;-69
2021/06/11 05:29:13;;;;;;;34.17;21.95;;;;;14.70;100903.00;;;;5027997;28;20038;-68
2021/06/11 05:31:40;;;;;;;34.90;20.98;;;;;14.70;100890.00;;;;5027856;28;20024;-69
2021/06/11 05:34:06;;;;;;;32.55;20.83;;;;;14.70;100891.00;;;;5028438;28;20029;-69
2021/06/11 05:36:33;;;;;;;33.38;20.10;;;;;14.70;100894.00;;;;5028147;28;20029;-70
2021/06/11 05:38:59;;;;;;;45.28;21.80;;;;;14.70;100887.00;;;;5027844;28;20048;-71
2021/06/11 05:41:26;;;;;;;32.03;18.90;;;;;14.60;100890.00;;;;5027535;28;20025;-71
2021/06/11 05:43:52;;;;;;;28.85;18.13;;;;;14.60;100884.00;;;;5027406;28;20029;-70
2021/06/11 05:46:20;;;;;;;24.67;16.48;;;;;14.60;100887.00;;;;5028049;28;20090;-71
2021/06/11 05:48:48;;;;;;;30.95;17.70;;;;;14.60;100882.00;;;;5026927;28;20099;-70
2021/06/11 05:51:15;;;;;;;35.95;17.98;;;;;14.60;100878.00;;;;5027525;28;20029;-71
2021/06/11 05:53:42;;;;;;;31.20;18.33;;;;;14.50;100894.00;;;;5027081;28;20447;-70
2021/06/11 05:56:08;;;;;;;36.40;18.20;;;;;14.50;100899.00;;;;5027225;28;20033;-69
2021/06/11 05:58:36;;;;;;;30.25;17.60;;;;;14.50;100891.00;;;;5027981;28;20485;-71
2021/06/11 06:01:04;;;;;;;34.20;17.33;;;;;14.50;100889.00;;;;5027631;28;20500;-72
2021/06/11 06:03:31;;;;;;;35.25;18.27;;;;;14.50;100887.00;;;;5027081;28;20504;-73
2021/06/11 06:05:58;;;;;;;33.30;17.80;;;;;14.50;100892.00;;;;5027519;28;20393;-72
2021/06/11 06:08:24;;;;;;;39.28;18.65;;;;;14.50;100894.00;;;;5025700;28;20176;-70
2021/06/11 06:10:51;;;;;;;31.90;18.13;;;;;14.50;100904.00;;;;5025717;28;20057;-69
2021/06/11 06:13:17;;;;;;;32.58;16.30;;;;;14.50;100890.00;;;;5027807;28;20071;-67
2021/06/11 06:15:44;;;;;;;38.65;18.17;;;;;14.50;100903.00;;;;5027446;28;20377;-72
2021/06/11 06:18:12;;;;;;;31.13;17.85;;;;;14.40;100904.00;;;;5027504;28;20037;-71
2021/06/11 06:20:39;;;;;;;29.73;17.10;;;;;14.40;100912.00;;;;5027203;28;20171;-69
2021/06/11 06:23:05;;;;;;;26.55;16.50;;;;;14.40;100895.00;;;;5027185;28;20041;-70
2021/06/11 06:25:32;;;;;;;30.20;16.73;;;;;14.40;100905.00;;;;5027620;28;20405;-72
2021/06/11 06:27:59;;;;;;;32.85;16.98;;;;;14.40;100906.00;;;;5026942;28;20515;-71
2021/06/11 06:30:25;;;;;;;31.30;17.23;;;;;14.40;100915.00;;;;5026834;28;20488;-71
2021/06/11 06:32:52;;;;;;;29.80;17.45;;;;;14.40;100912.00;;;;5026714;28;20065;-68
2021/06/11 06:35:18;;;;;;;30.42;16.35;;;;;14.40;100902.00;;;;5027023;28;20037;-69
2021/06/11 06:37:45;;;;;;;28.50;16.98;;;;;14.40;100923.00;;;;5026912;28;20037;-70
2021/06/11 06:40:13;;;;;;;31.67;17.50;;;;;14.40;100916.00;;;;5027413;28;20029;-71
2021/06/11 06:42:41;;;;;;;29.67;16.98;;;;;14.40;100926.00;;;;5026942;28;20112;-69
2021/06/11 06:45:14;;;;;;;30.02;16.30;;;;;14.30;100928.00;;;;5027491;28;20029;-67
2021/06/11 06:47:45;;;;;;;27.65;15.00;;;;;14.30;100921.00;;;;5027262;28;20080;-72
2021/06/11 06:50:19;;;;;;;26.50;15.80;;;;;14.30;100939.00;;;;5025116;28;20037;-70
2021/06/11 06:52:46;;;;;;;25.65;14.07;;;;;14.30;100937.00;;;;5026937;28;20111;-69
2021/06/11 06:55:14;;;;;;;24.50;14.30;;;;;14.30;100912.00;;;;5026563;28;20037;-69
2021/06/11 06:57:40;;;;;;;26.92;14.20;;;;;14.30;100926.00;;;;5026811;28;20025;-68
2021/06/11 07:00:08;;;;;;;19.17;13.18;;;;;14.30;100920.00;;;;5027534;28;20069;-72
2021/06/11 07:02:35;;;;;;;23.35;13.65;;;;;14.30;100912.00;;;;5030846;28;20048;-70
2021/06/11 07:05:02;;;;;;;25.83;12.30;;;;;14.20;100914.00;;;;5030619;28;20041;-69
2021/06/11 07:07:29;;;;;;;22.27;13.45;;;;;14.20;100918.00;;;;5029510;28;20591;-68
2021/06/11 07:09:55;;;;;;;24.42;13.32;;;;;14.20;100913.00;;;;5029385;28;20041;-72
2021/06/11 07:12:34;;;;;;;29.33;13.95;;;;;14.20;100906.00;;;;5028101;28;20045;-71
2021/06/11 07:15:00;;;;;;;27.77;13.20;;;;;14.10;100913.00;;;;5030104;28;20033;-71
2021/06/11 07:17:27;;;;;;;22.42;13.57;;;;;14.00;100912.00;;;;5030520;28;20022;-72
2021/06/11 07:19:54;;;;;;;24.70;13.10;;;;;13.90;100909.00;;;;5030009;28;20465;-70
2021/06/11 07:22:21;;;;;;;24.42;12.65;;;;;13.80;100912.00;;;;5030874;28;20385;-73
2021/06/11 07:24:48;;;;;;;28.27;12.82;;;;;13.70;100902.00;;;;5030942;28;20025;-71
2021/06/11 07:27:31;;;;;;;27.17;13.13;;;;;13.70;100912.00;;;;5030312;28;20060;-71
2021/06/11 07:29:58;;;;;;;22.70;13.60;;;;;13.70;100906.00;;;;5030130;28;20076;-70
2021/06/11 07:32:25;;;;;;;26.05;13.10;;;;;13.60;100897.00;;;;5030460;28;20075;-69
2021/06/11 07:34:51;;;;;;;21.65;12.65;;;;;13.70;100891.00;;;;5030662;28;20080;-70
2021/06/11 07:37:18;;;;;;;21.10;12.55;;;;;13.60;100893.00;;;;5030689;28;20472;-72
2021/06/11 07:39:44;;;;;;;29.15;13.68;;;;;13.50;100896.00;;;;5029909;28;20772;-71
2021/06/11 07:42:12;;;;;;;30.42;12.77;;;;;13.40;100895.00;;;;5029613;28;20040;-73
2021/06/11 07:44:39;;;;;;;93.28;14.23;;;;;13.30;100898.00;;;;5029668;28;20472;-70
2021/06/11 07:47:06;;;;;;;31.67;12.52;;;;;13.30;100904.00;;;;5030271;28;20030;-69
2021/06/11 07:49:33;;;;;;;31.10;12.68;;;;;13.30;100890.00;;;;5029909;28;20033;-73
2021/06/11 07:52:00;;;;;;;20.80;12.32;;;;;13.20;100887.00;;;;5029293;28;20025;-72
2021/06/11 07:54:27;;;;;;;20.15;12.38;;;;;13.20;100885.00;;;;5030222;28;20076;-66
2021/06/11 07:56:54;;;;;;;28.35;12.40;;;;;13.20;100879.00;;;;5030006;28;20029;-69
2021/06/11 07:59:21;;;;;;;22.30;12.20;;;;;13.20;100897.00;;;;5029743;28;20041;-71
2021/06/11 08:01:48;;;;;;;20.17;12.10;;;;;13.20;100880.00;;;;5029757;28;20797;-70
2021/06/11 08:04:14;;;;;;;24.27;11.88;;;;;13.10;100887.00;;;;5029457;28;20064;-70
2021/06/11 08:06:41;;;;;;;23.30;12.13;;;;;13.20;100890.00;;;;5029627;28;20868;-71
2021/06/11 08:09:07;;;;;;;24.70;12.55;;;;;13.20;100878.00;;;;5029186;28;20388;-73
2021/06/11 08:11:42;;;;;;;28.77;14.35;;;;;13.20;100887.00;;;;5025456;28;20072;-71
2021/06/11 08:14:09;;;;;;;31.92;13.55;;;;;13.10;100874.00;;;;5029033;28;20538;-68
2021/06/11 08:16:35;;;;;;;28.45;13.80;;;;;13.10;100872.00;;;;5029249;28;20515;-67
2021/06/11 08:19:02;;;;;;;34.65;14.57;;;;;13.10;100883.00;;;;5030409;28;20029;-72
2021/06/11 08:21:29;;;;;;;26.17;14.05;;;;;13.20;100887.00;;;;5029735;28;20108;-67
2021/06/11 08:23:55;;;;;;;31.33;15.05;;;;;13.20;100885.00;;;;5028742;28;20580;-70
2021/06/11 08:26:22;;;;;;;35.90;15.48;;;;;13.30;100892.00;;;;5029528;28;20469;-70
2021/06/11 08:28:48;;;;;;;36.65;14.80;;;;;13.40;100880.00;;;;5029271;28;20079;-70
2021/06/11 08:31:15;;;;;;;31.48;15.15;;;;;13.40;100900.00;;;;5029154;28;20045;-69
2021/06/11 08:33:43;;;;;;;41.20;15.68;;;;;13.40;100902.00;;;;5029090;28;20072;-69
2021/06/11 08:36:09;;;;;;;33.50;15.00;;;;;13.40;100907.00;;;;5029089;28;20542;-73
2021/06/11 08:38:36;;;;;;;36.88;14.55;;;;;13.50;100899.00;;;;5028575;28;20112;-73
2021/06/11 08:41:03;;;;;;;32.38;15.45;;;;;13.60;100899.00;;;;5028987;28;20035;-70
2021/06/11 08:43:30;;;;;;;35.97;14.30;;;;;13.60;100913.00;;;;5029016;28;20500;-69
2021/06/11 08:45:57;;;;;;;23.20;14.07;;;;;13.60;100911.00;;;;5029185;28;20022;-71
2021/06/11 08:48:24;;;;;;;26.38;14.63;;;;;13.60;100907.00;;;;5028844;28;20112;-68
2021/06/11 08:50:51;;;;;;;25.70;13.27;;;;;13.60;100914.00;;;;5028643;28;20124;-71
2021/06/11 08:53:18;;;;;;;25.55;13.32;;;;;13.60;100925.00;;;;5028603;28;20081;-68
2021/06/11 08:55:46;;;;;;;32.92;15.32;;;;;13.60;100933.00;;;;5028684;28;20087;-69
2021/06/11 08:58:14;;;;;;;30.50;13.00;;;;;13.60;100923.00;;;;5029058;28;20033;-70
2021/06/11 09:00:41;;;;;;;25.90;14.32;;;;;13.60;100932.00;;;;5028746;28;20512;-72
2021/06/11 09:03:20;;;;;;;30.33;14.20;;;;;13.70;100943.00;;;;5028740;28;20029;-69
2021/06/11 09:06:12;;;;;;;24.83;12.88;;;;;13.70;100950.00;;;;5028886;28;20029;-72
2021/06/11 09:08:41;;;;;;;19.55;12.02;;;;;13.70;100957.00;;;;5028821;28;20040;-72
2021/06/11 09:11:18;;;;;;;18.30;11.95;;;;;13.70;100956.00;;;;5028226;28;20063;-69
2021/06/11 09:13:49;;;;;;;25.48;12.60;;;;;13.70;100949.00;;;;5027562;28;20381;-71
2021/06/11 09:16:24;;;;;;;26.15;11.90;;;;;13.70;100953.00;;;;5028328;28;20156;-70
2021/06/11 09:19:02;;;;;;;17.60;11.13;;;;;13.70;100954.00;;;;5028701;28;20033;-69
2021/06/11 09:21:43;;;;;;;18.23;11.00;;;;;13.70;100961.00;;;;5027992;28;20044;-70
2021/06/11 09:24:23;;;;;;;18.02;11.15;;;;;13.60;100963.00;;;;5026965;28;20093;-68
2021/06/11 09:27:03;;;;;;;18.02;10.13;;;;;13.60;100966.00;;;;5026456;28;20033;-71
2021/06/11 09:29:44;;;;;;;25.97;11.33;;;;;13.60;100972.00;;;;5028229;28;20061;-71
2021/06/11 09:32:17;;;;;;;19.92;10.95;;;;;13.60;100968.00;;;;5026621;28;20268;-69
2021/06/11 09:34:55;;;;;;;24.80;11.82;;;;;13.60;100962.00;;;;5027351;28;20053;-69
2021/06/11 09:37:30;;;;;;;19.65;11.90;;;;;13.60;100974.00;;;;5027559;28;20057;-69
2021/06/11 09:40:00;;;;;;;20.45;12.43;;;;;13.60;100979.00;;;;5026465;28;20026;-71
2021/06/11 09:42:32;;;;;;;21.88;12.57;;;;;13.60;100979.00;;;;5026981;28;20033;-67
2021/06/11 09:45:03;;;;;;;19.00;12.63;;;;;13.60;100975.00;;;;5026910;28;20038;-67
2021/06/11 09:47:34;;;;;;;20.98;12.52;;;;;13.60;100980.00;;;;5026530;28;20061;-70
2021/06/11 09:50:09;;;;;;;18.80;13.05;;;;;13.60;100973.00;;;;5026870;28;20796;-73
2021/06/11 09:52:53;;;;;;;17.15;12.23;;;;;13.60;100985.00;;;;5026200;28;20029;-72
2021/06/11 09:55:30;;;;;;;18.88;13.07;;;;;13.60;101001.00;;;;5027158;28;20381;-72
2021/06/11 09:58:12;;;;;;;19.55;12.77;;;;;13.50;101012.00;;;;5027317;28;20392;-71
2021/06/11 10:00:52;;;;;;;20.88;13.35;;;;;13.50;101013.00;;;;5026798;28;20670;-72
2021/06/11 10:03:26;;;;;;;21.10;13.50;;;;;13.50;101020.00;;;;5031554;28;20021;-74
2021/06/11 10:05:55;;;;;;;15.70;12.13;;;;;13.50;101024.00;;;;5036716;28;20388;-72
2021/06/11 10:08:23;;;;;;;17.10;11.82;;;;;13.50;101028.00;;;;5034446;28;20024;-71
2021/06/11 10:10:53;;;;;;;19.52;12.50;;;;;13.50;101030.00;;;;5037533;28;20028;-71
2021/06/11 10:13:21;;;;;;;16.23;12.10;;;;;13.50;101030.00;;;;5047202;28;20043;-72
2021/06/11 10:15:51;;;;;;;27.50;16.25;;;;;13.50;101025.00;;;;5046778;28;20033;-71
2021/06/11 10:18:18;;;;;;;18.60;12.82;;;;;13.50;101026.00;;;;5047332;28;20078;-69
2021/06/11 10:20:46;;;;;;;17.95;11.88;;;;;13.50;101021.00;;;;5047150;28;20025;-70
2021/06/11 10:23:31;;;;;;;17.92;12.50;;;;;13.50;101023.00;;;;5012794;28;20053;-72
2021/06/11 10:26:01;;;;;;;19.50;13.45;;;;;13.50;101014.00;;;;5046788;28;20161;-71
2021/06/11 10:28:39;;;;;;;26.40;20.30;;;;;13.50;101034.00;;;;5046516;28;20037;-74
2021/06/11 10:31:17;;;;;;;16.35;13.90;;;;;13.50;101037.00;;;;5046657;28;20141;-73
2021/06/11 10:33:44;;;;;;;23.98;13.73;;;;;13.50;101028.00;;;;5046612;28;20028;-73
2021/06/11 10:38:55;;;;;;;19.10;13.45;;;;;13.40;101038.00;;;;5046374;28;20044;-74
2021/06/11 10:41:22;;;;;;;20.50;14.05;;;;;13.40;101037.00;;;;5047426;28;20037;-71
2021/06/11 10:43:50;;;;;;;19.75;14.10;;;;;13.40;101036.00;;;;5046426;28;20029;-72
2021/06/11 10:46:29;;;;;;;22.23;15.15;;;;;13.50;101030.00;;;;5046381;28;20044;-71
2021/06/11 10:48:56;;;;;;;27.77;16.65;;;;;13.40;101060.00;;;;5046480;28;20033;-72
2021/06/11 10:51:37;;;;;;;26.50;18.80;;;;;13.50;101061.00;;;;5046221;28;20124;-69
2021/06/11 10:54:19;;;;;;;23.63;17.10;;;;;13.50;101057.00;;;;5045848;28;20387;-73
2021/06/11 10:57:01;;;;;;;25.60;17.55;;;;;13.50;101066.00;;;;5046340;28;20186;-69
2021/06/11 10:59:34;;;;;;;33.05;24.63;;;;;13.50;101078.00;;;;5046049;28;20150;-73
2021/06/11 11:02:02;;;;;;;24.08;18.10;;;;;13.40;101065.00;;;;5046399;28;20032;-71
2021/06/11 11:04:34;;;;;;;25.95;18.83;;;;;13.40;101085.00;;;;5046123;28;20021;-72
2021/06/11 11:07:24;;;;;;;27.15;19.77;;;;;13.40;101071.00;;;;5046049;28;20070;-69
2021/06/11 11:10:13;;;;;;;27.80;19.17;;;;;13.40;101073.00;;;;5040522;28;20068;-71
2021/06/11 11:13:07;;;;;;;26.02;18.95;;;;;13.40;101078.00;;;;5045560;28;20076;-72
2021/06/11 11:15:42;;;;;;;28.70;18.15;;;;;13.40;101080.00;;;;5046326;28;20055;-70
2021/06/11 11:18:11;;;;;;;27.30;16.35;;;;;13.50;101074.00;;;;5046522;28;20047;-70
2021/06/11 11:20:41;;;;;;;19.05;15.63;;;;;13.50;101075.00;;;;5046021;28;20481;-69
2021/06/11 11:23:13;;;;;;;24.30;14.63;;;;;13.40;101073.00;;;;5045693;28;20036;-70
2021/06/11 11:25:41;;;;;;;19.50;14.55;;;;;13.40;101071.00;;;;5046144;28;20389;-70
2021/06/11 11:28:09;;;;;;;24.27;13.75;;;;;13.40;101091.00;;;;5046336;28;20040;-70
2021/06/11 11:30:37;;;;;;;18.48;14.57;;;;;13.50;101076.00;;;;5046361;28;20047;-71
2021/06/11 11:33:05;;;;;;;21.50;13.65;;;;;13.60;101075.00;;;;5046413;28;20032;-72
2021/06/11 11:35:35;;;;;;;14.40;11.98;;;;;13.50;101076.00;;;;5045809;28;20112;-71
2021/06/11 11:38:04;;;;;;;15.88;11.35;;;;;13.50;101085.00;;;;5046516;28;20028;-71
2021/06/11 11:40:31;;;;;;;11.55;10.40;;;;;13.50;101080.00;;;;5045929;28;20140;-71
2021/06/11 11:43:00;;;;;;;15.70;10.98;;;;;13.50;101080.00;;;;5045571;28;20032;-70
2021/06/11 11:45:29;;;;;;;15.90;11.10;;;;;13.60;101078.00;;;;5045437;28;20508;-70
2021/06/11 11:47:58;;;;;;;14.55;11.20;;;;;13.60;101074.00;;;;5049020;28;20024;-70
2021/06/11 11:50:27;;;;;;;17.35;10.82;;;;;13.50;101074.00;;;;5049640;28;20039;-68
2021/06/11 11:52:54;;;;;;;16.45;9.63;;;;;13.50;101086.00;;;;5049812;28;20029;-70
2021/06/11 11:55:22;;;;;;;14.15;10.15;;;;;13.60;101082.00;;;;5049580;28;20116;-70
2021/06/11 11:57:48;;;;;;;17.40;9.98;;;;;13.60;101091.00;;;;5049629;28;20029;-70
2021/06/11 12:00:16;;;;;;;10.75;8.32;;;;;13.60;101110.00;;;;5049377;28;20480;-71
2021/06/11 12:02:45;;;;;;;18.48;8.70;;;;;13.60;101115.00;;;;5049504;28;20025;-70
2021/06/11 12:05:14;;;;;;;14.35;9.23;;;;;13.50;101107.00;;;;5049256;28;20553;-69